createdAt,value
2023-01-30T00:00:55.612Z,53.75
2023-01-30T00:03:24.164Z,47.90
2023-01-30T00:05:55.363Z,48.50
2023-01-30T00:08:22.013Z,49.42
2023-01-30T00:10:49.794Z,44.55
2023-01-30T00:13:16.555Z,47.53
2023-01-30T00:15:43.670Z,44.10
2023-01-30T00:18:10.474Z,44.63
2023-01-30T00:20:37.378Z,49.42
2023-01-30T00:23:04.346Z,40.80
2023-01-30T00:25:31.720Z,43.05
2023-01-30T00:28:01.840Z,47.97
2023-01-30T00:30:28.986Z,42.17
2023-01-30T00:32:57.189Z,47.95
2023-01-30T00:35:28.603Z,50.50
2023-01-30T00:37:57.009Z,48.15
2023-01-30T00:40:25.446Z,42.78
2023-01-30T00:45:59.845Z,43.08
2023-01-30T00:48:26.568Z,41.47
2023-01-30T00:50:55.183Z,41.38
2023-01-30T00:53:21.758Z,42.60
2023-01-30T00:55:51.335Z,46.50
2023-01-30T00:58:18.168Z,31.92
2023-01-30T01:00:44.914Z,39.83
2023-01-30T01:03:11.482Z,40.03
2023-01-30T01:05:38.120Z,37.78
2023-01-30T01:08:05.154Z,40.63
2023-01-30T01:10:32.707Z,40.65
2023-01-30T01:12:59.383Z,34.78
2023-01-30T01:15:27.044Z,37.30
2023-01-30T01:17:54.270Z,35.75
2023-01-30T01:20:21.515Z,39.85
2023-01-30T01:22:50.495Z,42.05
2023-01-30T01:25:21.175Z,39.85
2023-01-30T01:27:48.093Z,43.60
2023-01-30T01:30:14.917Z,40.38
2023-01-30T01:32:41.649Z,39.45
2023-01-30T01:35:08.651Z,37.90
2023-01-30T01:37:35.155Z,30.88
2023-01-30T01:40:20.105Z,38.30
2023-01-30T01:42:46.959Z,43.35
2023-01-30T01:45:18.560Z,36.63
2023-01-30T01:48:11.865Z,38.78
2023-01-30T01:50:50.039Z,36.03
2023-01-30T01:53:19.382Z,41.08
2023-01-30T01:55:50.111Z,35.50
2023-01-30T01:58:26.479Z,35.25
2023-01-30T02:00:58.698Z,38.63
2023-01-30T02:03:28.460Z,39.30
2023-01-30T02:06:01.024Z,37.95
2023-01-30T02:08:29.358Z,39.80
2023-01-30T02:11:07.306Z,42.53
2023-01-30T02:13:34.025Z,53.20
2023-01-30T02:16:02.356Z,40.90
2023-01-30T02:18:32.693Z,38.90
2023-01-30T02:21:08.288Z,39.35
2023-01-30T02:24:27.983Z,37.80
2023-01-30T02:26:57.503Z,41.60
2023-01-30T02:29:38.993Z,41.03
2023-01-30T02:32:20.935Z,44.45
2023-01-30T02:34:47.389Z,39.72
2023-01-30T02:37:39.012Z,37.58
2023-01-30T02:40:32.639Z,43.17
2023-01-30T02:43:17.284Z,42.58
2023-01-30T02:45:57.039Z,39.45
2023-01-30T02:48:30.145Z,38.90
2023-01-30T02:51:05.912Z,39.78
2023-01-30T02:53:34.099Z,41.20
2023-01-30T02:56:01.014Z,39.65
2023-01-30T02:58:33.923Z,40.42
2023-01-30T03:01:18.685Z,39.28
2023-01-30T03:04:08.300Z,45.70
2023-01-30T03:06:40.658Z,41.88
2023-01-30T03:09:22.305Z,42.30
2023-01-30T03:11:51.795Z,37.55
2023-01-30T03:14:34.693Z,42.50
2023-01-30T03:17:04.400Z,41.85
2023-01-30T03:19:31.016Z,40.88
2023-01-30T03:21:57.690Z,46.20
2023-01-30T03:24:24.727Z,47.08
2023-01-30T03:27:08.789Z,48.45
2023-01-30T03:29:35.353Z,46.65
2023-01-30T03:32:01.980Z,46.05
2023-01-30T03:34:28.703Z,46.67
2023-01-30T03:36:56.465Z,42.10
2023-01-30T03:39:24.623Z,42.10
2023-01-30T03:41:54.980Z,43.38
2023-01-30T03:44:22.189Z,46.30
2023-01-30T03:46:48.908Z,45.22
2023-01-30T03:49:15.514Z,51.03
2023-01-30T03:51:42.083Z,44.40
2023-01-30T03:54:08.603Z,45.33
2023-01-30T03:56:35.098Z,41.08
2023-01-30T03:59:01.668Z,46.08
2023-01-30T04:01:28.265Z,46.03
2023-01-30T04:03:54.847Z,42.67
2023-01-30T04:06:21.440Z,45.03
2023-01-30T04:08:47.992Z,37.58
2023-01-30T04:11:14.518Z,40.50
2023-01-30T04:13:41.090Z,42.13
2023-01-30T04:16:27.228Z,46.75
2023-01-30T04:18:53.895Z,44.05
2023-01-30T04:21:21.026Z,42.08
2023-01-30T04:23:47.769Z,45.40
2023-01-30T04:26:14.809Z,45.97
2023-01-30T04:28:42.250Z,44.75
2023-01-30T04:31:08.898Z,41.42
2023-01-30T04:33:35.714Z,42.72
2023-01-30T04:36:03.958Z,47.67
2023-01-30T04:38:31.704Z,41.13
2023-01-30T04:40:59.418Z,41.70
2023-01-30T04:43:27.611Z,39.75
2023-01-30T04:45:56.710Z,44.42
2023-01-30T04:48:24.936Z,42.50
2023-01-30T04:50:53.307Z,39.90
2023-01-30T04:53:20.964Z,42.13
2023-01-30T04:55:48.056Z,35.70
2023-01-30T04:58:15.597Z,39.80
2023-01-30T05:00:42.327Z,41.25
2023-01-30T05:03:08.944Z,41.30
2023-01-30T05:05:35.519Z,41.72
2023-01-30T05:08:02.122Z,37.35
2023-01-30T05:10:28.681Z,38.88
2023-01-30T05:12:55.203Z,39.53
2023-01-30T05:15:21.844Z,39.70
2023-01-30T05:17:48.456Z,36.80
2023-01-30T05:20:15.079Z,43.22
2023-01-30T05:22:43.687Z,41.83
2023-01-30T05:25:10.347Z,39.78
2023-01-30T05:27:37.233Z,38.55
2023-01-30T05:30:04.832Z,35.63
2023-01-30T05:32:38.920Z,35.78
2023-01-30T05:35:06.047Z,36.57
2023-01-30T05:37:32.590Z,41.20
2023-01-30T05:39:59.175Z,36.45
2023-01-30T05:42:25.651Z,40.10
2023-01-30T05:44:52.176Z,43.47
2023-01-30T05:47:18.789Z,40.83
2023-01-30T05:49:45.380Z,41.55
2023-01-30T05:52:11.993Z,36.67
2023-01-30T05:54:38.595Z,35.80
2023-01-30T05:57:05.189Z,37.90
2023-01-30T05:59:31.729Z,37.47
2023-01-30T06:01:58.337Z,39.60
2023-01-30T06:04:24.878Z,39.45
2023-01-30T06:06:51.493Z,37.08
2023-01-30T06:09:18.117Z,39.05
2023-01-30T06:11:44.657Z,36.30
2023-01-30T06:14:11.194Z,36.90
2023-01-30T06:16:37.942Z,40.92
2023-01-30T06:19:04.534Z,39.20
2023-01-30T06:21:31.510Z,42.70
2023-01-30T06:23:58.100Z,40.47
2023-01-30T06:26:24.698Z,38.72
2023-01-30T06:28:51.267Z,37.88
2023-01-30T06:31:18.560Z,36.03
2023-01-30T06:33:52.425Z,34.97
2023-01-30T06:36:21.261Z,39.88
2023-01-30T06:38:48.804Z,37.22
2023-01-30T06:41:15.309Z,38.65
2023-01-30T06:43:42.738Z,35.90
2023-01-30T06:46:17.037Z,35.72
2023-01-30T06:48:43.582Z,36.13
2023-01-30T06:51:10.128Z,40.38
2023-01-30T06:53:36.965Z,38.60
2023-01-30T06:56:06.986Z,40.72
2023-01-30T06:58:33.476Z,40.45
2023-01-30T07:01:00.145Z,37.20
2023-01-30T07:03:26.736Z,44.08
2023-01-30T07:05:53.375Z,46.75
2023-01-30T07:08:23.981Z,40.05
2023-01-30T07:10:50.954Z,41.20
2023-01-30T07:13:17.518Z,44.95
2023-01-30T07:15:45.009Z,40.15
2023-01-30T07:18:11.558Z,42.28
2023-01-30T07:20:38.136Z,49.25
2023-01-30T07:23:04.764Z,47.33
2023-01-30T07:25:31.370Z,39.88
2023-01-30T07:28:00.138Z,47.63
2023-01-30T07:30:28.832Z,43.67
2023-01-30T07:33:01.808Z,48.38
2023-01-30T07:35:31.247Z,43.90
2023-01-30T07:37:58.357Z,38.25
2023-01-30T07:40:25.856Z,38.60
2023-01-30T07:43:05.903Z,39.90
2023-01-30T07:45:43.927Z,41.10
2023-01-30T07:48:12.210Z,37.75
2023-01-30T07:50:39.456Z,37.47
2023-01-30T07:53:08.055Z,34.65
2023-01-30T07:55:35.156Z,36.17
2023-01-30T07:58:01.693Z,35.22
2023-01-30T08:00:28.530Z,37.55
2023-01-30T08:02:55.131Z,40.13
2023-01-30T08:05:21.667Z,38.63
2023-01-30T08:07:48.200Z,36.47
2023-01-30T08:10:14.924Z,45.35
2023-01-30T08:12:41.848Z,38.17
2023-01-30T08:15:09.839Z,37.92
2023-01-30T08:17:40.616Z,40.38
2023-01-30T08:20:07.709Z,40.33
2023-01-30T08:22:34.405Z,50.45
2023-01-30T08:25:01.182Z,47.00
2023-01-30T08:27:27.710Z,39.40
2023-01-30T08:29:54.228Z,39.42
2023-01-30T08:32:20.704Z,39.22
2023-01-30T08:34:47.209Z,43.38
2023-01-30T08:37:13.754Z,37.72
2023-01-30T08:39:40.331Z,40.65
2023-01-30T08:42:06.811Z,41.22
2023-01-30T08:44:33.373Z,39.35
2023-01-30T08:47:01.457Z,43.63
2023-01-30T08:49:27.941Z,40.63
2023-01-30T08:51:57.338Z,39.83
2023-01-30T08:54:23.927Z,49.67
2023-01-30T08:56:50.509Z,45.28
2023-01-30T08:59:17.179Z,42.60
2023-01-30T09:01:43.698Z,44.70
2023-01-30T09:04:10.225Z,46.05
2023-01-30T09:06:36.831Z,46.67
2023-01-30T09:09:03.432Z,44.42
2023-01-30T09:11:30.011Z,40.33
2023-01-30T09:13:56.751Z,44.53
2023-01-30T09:16:23.432Z,41.70
2023-01-30T09:18:50.043Z,41.10
2023-01-30T09:21:16.969Z,45.33
2023-01-30T09:23:46.284Z,48.70
2023-01-30T09:26:15.854Z,46.88
2023-01-30T09:28:42.450Z,40.97
2023-01-30T09:31:11.814Z,42.88
2023-01-30T09:33:38.413Z,45.47
2023-01-30T09:36:06.478Z,42.75
2023-01-30T09:38:32.979Z,46.72
2023-01-30T09:40:59.427Z,48.53
2023-01-30T09:43:52.989Z,44.10
2023-01-30T09:46:54.941Z,45.45
2023-01-30T09:49:35.555Z,44.47
2023-01-30T09:53:03.468Z,49.92
2023-01-30T09:55:33.958Z,44.40
2023-01-30T09:58:01.005Z,55.00
2023-01-30T10:00:35.902Z,51.83
2023-01-30T10:03:10.696Z,45.17
2023-01-30T10:05:51.548Z,47.15
2023-01-30T10:08:26.851Z,48.13
2023-01-30T10:11:10.728Z,54.53
2023-01-30T10:14:02.410Z,58.25
2023-01-30T10:16:35.165Z,45.03
2023-01-30T10:19:35.838Z,45.10
2023-01-30T10:22:32.881Z,58.15
2023-01-30T10:25:06.341Z,48.25
2023-01-30T10:27:37.879Z,43.63
2023-01-30T10:30:08.096Z,47.45
2023-01-30T10:32:55.937Z,45.28
2023-01-30T10:35:27.469Z,48.72
2023-01-30T10:38:07.709Z,44.75
2023-01-30T10:40:52.330Z,44.72
2023-01-30T10:43:28.259Z,43.42
2023-01-30T10:46:25.507Z,47.05
2023-01-30T10:49:20.574Z,41.85
2023-01-30T10:51:53.647Z,45.78
2023-01-30T10:54:33.135Z,42.00
2023-01-30T10:57:30.662Z,43.40
2023-01-30T11:00:10.693Z,43.88
2023-01-30T11:03:08.760Z,48.03
2023-01-30T11:05:44.905Z,41.03
2023-01-30T11:08:32.108Z,43.92
2023-01-30T11:10:59.965Z,46.22
2023-01-30T11:13:32.179Z,47.65
2023-01-30T11:16:04.425Z,35.95
2023-01-30T11:21:43.653Z,39.00
2023-01-30T11:24:17.346Z,36.10
2023-01-30T11:26:47.876Z,36.55
2023-01-30T11:29:35.268Z,35.45
2023-01-30T11:32:24.933Z,36.28
2023-01-30T11:35:06.783Z,41.97
2023-01-30T11:37:40.721Z,37.65
2023-01-30T11:40:23.978Z,36.58
2023-01-30T11:42:53.588Z,35.70
2023-01-30T11:45:25.527Z,38.92
2023-01-30T11:47:59.221Z,36.90
2023-01-30T11:50:41.630Z,36.03
2023-01-30T11:53:30.072Z,40.28
2023-01-30T11:56:05.717Z,40.15
2023-01-30T11:58:36.499Z,42.35
2023-01-30T12:01:04.313Z,40.72
2023-01-30T12:03:31.751Z,46.40
2023-01-30T12:05:59.249Z,40.60
2023-01-30T12:08:41.766Z,43.60
2023-01-30T12:11:29.342Z,46.13
2023-01-30T12:14:10.832Z,45.80
2023-01-30T12:17:06.704Z,50.72
2023-01-30T12:19:48.477Z,45.72
2023-01-30T12:22:36.091Z,44.10
2023-01-30T12:25:14.304Z,41.45
2023-01-30T12:28:03.325Z,44.47
2023-01-30T12:30:42.343Z,44.45
2023-01-30T12:33:14.412Z,43.90
2023-01-30T12:35:55.946Z,44.60
2023-01-30T12:38:28.538Z,43.67
2023-01-30T12:41:28.827Z,45.88
2023-01-30T12:44:20.306Z,43.72
2023-01-30T12:46:58.245Z,46.08
2023-01-30T12:49:50.321Z,45.88
2023-01-30T12:52:38.488Z,43.10
2023-01-30T12:55:34.791Z,45.22
2023-01-30T12:58:39.036Z,48.00
2023-01-30T13:01:29.631Z,48.22
2023-01-30T13:03:59.920Z,47.03
2023-01-30T13:06:54.405Z,44.60
2023-01-30T13:09:39.707Z,42.80
2023-01-30T13:14:48.590Z,53.20
2023-01-30T13:17:27.296Z,51.00
2023-01-30T13:20:05.959Z,49.33
2023-01-30T13:22:39.688Z,42.58
2023-01-30T13:25:12.142Z,46.47
2023-01-30T13:27:43.515Z,46.63
2023-01-30T13:30:18.092Z,46.47
2023-01-30T13:32:51.711Z,52.17
2023-01-30T13:35:24.554Z,45.92
2023-01-30T13:37:56.301Z,44.80
2023-01-30T13:40:31.796Z,43.85
2023-01-30T13:43:19.849Z,42.33
2023-01-30T13:45:48.876Z,45.45
2023-01-30T13:48:21.559Z,45.33
2023-01-30T13:51:18.615Z,44.42
2023-01-30T13:54:00.413Z,41.75
2023-01-30T13:56:43.125Z,41.80
2023-01-30T13:59:22.702Z,47.35
2023-01-30T14:02:04.374Z,42.00
2023-01-30T14:04:46.332Z,43.25
2023-01-30T14:07:12.930Z,43.60
2023-01-30T14:09:46.663Z,46.10
2023-01-30T14:12:31.394Z,48.97
2023-01-30T14:15:03.252Z,43.22
2023-01-30T14:17:30.594Z,40.25
2023-01-30T14:20:05.259Z,48.00
2023-01-30T14:22:39.748Z,47.15
2023-01-30T14:25:28.343Z,48.83
2023-01-30T14:28:14.830Z,45.13
2023-01-30T14:30:44.202Z,47.85
2023-01-30T14:33:21.428Z,45.50
2023-01-30T14:35:54.502Z,45.10
2023-01-30T14:38:22.600Z,46.45
2023-01-30T14:40:58.541Z,46.83
2023-01-30T14:43:44.021Z,46.05
2023-01-30T14:46:19.708Z,72.20
2023-01-30T14:48:58.289Z,44.90
2023-01-30T14:51:24.821Z,42.17
2023-01-30T14:54:33.261Z,52.55
2023-01-30T14:57:23.710Z,46.28
2023-01-30T15:00:15.894Z,40.75
2023-01-30T15:02:53.344Z,44.20
2023-01-30T15:05:28.175Z,38.53
2023-01-30T15:08:19.580Z,31.13
2023-01-30T15:10:58.242Z,25.50
2023-01-30T15:13:58.617Z,27.85
2023-01-30T15:16:47.652Z,26.95
2023-01-30T15:19:36.139Z,22.52
2023-01-30T15:22:38.560Z,26.95
2023-01-30T15:25:40.497Z,26.15
2023-01-30T15:28:12.746Z,24.67
2023-01-30T15:30:57.362Z,30.30
2023-01-30T15:33:31.519Z,26.55
2023-01-30T15:36:00.014Z,29.30
2023-01-30T15:38:32.460Z,38.78
2023-01-30T15:41:04.437Z,36.75
2023-01-30T15:43:45.917Z,31.13
2023-01-30T15:46:38.049Z,32.20
2023-01-30T15:49:28.515Z,25.33
2023-01-30T15:52:01.806Z,27.67
2023-01-30T15:54:28.473Z,25.83
2023-01-30T15:56:57.700Z,21.95
2023-01-30T15:59:35.904Z,28.08
2023-01-30T16:02:06.653Z,25.85
2023-01-30T16:04:33.378Z,23.65
2023-01-30T16:07:00.095Z,24.63
2023-01-30T16:09:26.899Z,23.90
2023-01-30T16:11:53.755Z,20.67
2023-01-30T16:14:22.202Z,23.58
2023-01-30T16:16:52.457Z,21.02
2023-01-30T16:19:31.935Z,23.90
2023-01-30T16:22:10.571Z,21.10
2023-01-30T16:24:37.915Z,19.92
2023-01-30T16:27:16.938Z,19.27
2023-01-30T16:29:51.248Z,18.00
2023-01-30T16:32:19.748Z,18.83
2023-01-30T16:34:46.387Z,18.25
2023-01-30T16:37:19.038Z,17.83
2023-01-30T16:39:47.623Z,19.10
2023-01-30T16:42:28.392Z,19.48
2023-01-30T16:45:21.606Z,20.02
2023-01-30T16:47:48.341Z,17.23
2023-01-30T16:50:21.930Z,17.52
2023-01-30T16:52:54.086Z,17.73
2023-01-30T16:55:24.532Z,15.20
2023-01-30T16:58:04.153Z,21.30
2023-01-30T17:00:40.160Z,20.42
2023-01-30T17:03:31.530Z,21.42
2023-01-30T17:05:59.492Z,21.65
2023-01-30T17:08:31.907Z,15.65
2023-01-30T17:11:04.807Z,16.27
2023-01-30T17:13:41.852Z,21.58
2023-01-30T17:16:23.669Z,14.52
2023-01-30T17:18:52.621Z,17.52
2023-01-30T17:21:20.332Z,14.05
2023-01-30T17:23:51.661Z,13.52
2023-01-30T17:26:18.618Z,14.40
2023-01-30T17:28:45.253Z,14.63
2023-01-30T17:31:13.573Z,13.50
2023-01-30T17:33:40.248Z,15.35
2023-01-30T17:36:25.185Z,14.82
2023-01-30T17:38:52.212Z,13.35
2023-01-30T17:41:21.493Z,15.05
2023-01-30T17:43:49.789Z,14.80
2023-01-30T17:46:17.893Z,10.70
2023-01-30T17:48:44.982Z,10.82
2023-01-30T17:51:17.459Z,12.60
2023-01-30T17:53:44.375Z,10.05
2023-01-30T17:56:24.186Z,10.30
2023-01-30T17:58:51.525Z,7.15
2023-01-30T18:01:19.162Z,7.55
2023-01-30T18:03:46.098Z,7.72
2023-01-30T18:06:14.290Z,8.68
2023-01-30T18:08:41.111Z,8.45
2023-01-30T18:11:11.647Z,7.18
2023-01-30T18:13:40.100Z,8.88
2023-01-30T18:16:08.096Z,7.45
2023-01-30T18:18:34.642Z,9.65
2023-01-30T18:21:01.246Z,14.10
2023-01-30T18:23:27.889Z,10.98
2023-01-30T18:25:54.423Z,8.93
2023-01-30T18:28:21.097Z,10.63
2023-01-30T18:30:47.828Z,10.00
2023-01-30T18:33:14.493Z,9.07
2023-01-30T18:35:41.130Z,27.23
2023-01-30T18:38:07.730Z,19.10
2023-01-30T18:40:34.248Z,10.13
2023-01-30T18:43:00.888Z,10.45
2023-01-30T18:45:27.439Z,9.60
2023-01-30T18:47:54.600Z,9.65
2023-01-30T18:50:21.619Z,9.32
2023-01-30T18:52:48.528Z,10.02
2023-01-30T18:55:15.401Z,14.10
2023-01-30T18:57:41.910Z,10.60
2023-01-30T19:00:10.467Z,8.23
2023-01-30T19:02:37.048Z,11.48
2023-01-30T19:05:03.717Z,7.85
2023-01-30T19:07:30.343Z,8.70
2023-01-30T19:09:57.001Z,8.35
2023-01-30T19:12:42.478Z,6.15
2023-01-30T19:15:09.417Z,9.20
2023-01-30T19:17:36.052Z,8.57
2023-01-30T19:20:04.827Z,6.22
2023-01-30T19:22:31.519Z,8.95
2023-01-30T19:24:58.019Z,8.02
2023-01-30T19:27:25.959Z,10.43
2023-01-30T19:29:52.795Z,6.93
2023-01-30T19:32:19.324Z,6.22
2023-01-30T19:34:46.039Z,7.53
2023-01-30T19:37:12.632Z,8.98
2023-01-30T19:39:39.210Z,7.82
2023-01-30T19:42:05.755Z,7.30
2023-01-30T19:44:32.289Z,8.10
2023-01-30T19:46:58.935Z,10.50
2023-01-30T19:49:28.253Z,6.03
2023-01-30T19:51:59.571Z,6.38
2023-01-30T19:54:26.177Z,5.75
2023-01-30T19:56:52.857Z,8.98
2023-01-30T19:59:19.419Z,7.05
2023-01-30T20:01:46.217Z,8.00
2023-01-30T20:04:12.770Z,8.93
2023-01-30T20:06:44.278Z,7.78
2023-01-30T20:09:11.413Z,7.57
2023-01-30T20:11:40.786Z,10.60
2023-01-30T20:14:09.319Z,7.40
2023-01-30T20:16:36.163Z,6.88
2023-01-30T20:19:08.265Z,5.80
2023-01-30T20:21:36.213Z,8.25
2023-01-30T20:24:03.717Z,7.85
2023-01-30T20:26:35.219Z,5.90
2023-01-30T20:29:04.045Z,7.75
2023-01-30T20:31:31.753Z,7.38
2023-01-30T20:34:01.790Z,6.63
2023-01-30T20:36:28.467Z,5.65
2023-01-30T20:38:56.583Z,6.88
2023-01-30T20:41:25.859Z,6.13
2023-01-30T20:43:56.094Z,7.20
2023-01-30T20:46:27.990Z,7.13
2023-01-30T20:48:56.471Z,6.28
2023-01-30T20:51:28.582Z,7.07
2023-01-30T20:53:59.146Z,5.57
2023-01-30T20:56:30.566Z,6.47
2023-01-30T20:58:57.568Z,8.65
2023-01-30T21:01:25.175Z,5.18
2023-01-30T21:03:53.856Z,5.70
2023-01-30T21:06:42.820Z,8.18
2023-01-30T21:09:18.353Z,7.05
2023-01-30T21:14:13.274Z,5.80
2023-01-30T21:16:40.578Z,5.20
2023-01-30T21:19:13.647Z,5.97
2023-01-30T21:21:45.711Z,8.05
2023-01-30T21:24:14.831Z,6.55
2023-01-30T21:26:46.461Z,6.47
2023-01-30T21:29:18.768Z,8.90
2023-01-30T21:31:47.900Z,8.93
2023-01-30T21:34:14.687Z,5.55
2023-01-30T21:36:41.251Z,3.22
2023-01-30T21:39:31.514Z,6.10
2023-01-30T21:42:16.395Z,3.80
2023-01-30T21:44:43.014Z,4.90
2023-01-30T21:47:09.645Z,4.68
2023-01-30T21:49:36.990Z,4.65
2023-01-30T21:52:03.831Z,3.78
2023-01-30T21:54:30.415Z,6.68
2023-01-30T21:56:57.071Z,3.70
2023-01-30T21:59:26.134Z,6.03
2023-01-30T22:01:52.673Z,5.68
2023-01-30T22:04:19.585Z,4.15
2023-01-30T22:06:46.135Z,3.47
2023-01-30T22:09:14.894Z,5.95
2023-01-30T22:11:42.405Z,4.05
2023-01-30T22:14:09.839Z,3.40
2023-01-30T22:16:36.364Z,6.22
2023-01-30T22:19:04.678Z,5.50
2023-01-30T22:21:34.384Z,11.15
2023-01-30T22:24:02.073Z,6.07
2023-01-30T22:26:28.713Z,5.57
2023-01-30T22:28:59.725Z,5.88
2023-01-30T22:31:28.736Z,6.10
2023-01-30T22:33:56.091Z,11.57
2023-01-30T22:36:30.749Z,5.85
2023-01-30T22:38:57.354Z,6.80
2023-01-30T22:41:26.575Z,6.05
2023-01-30T22:43:58.621Z,7.97
2023-01-30T22:46:31.569Z,7.70
2023-01-30T22:48:59.732Z,7.05
2023-01-30T22:51:31.726Z,6.85
2023-01-30T22:54:04.447Z,8.05
2023-01-30T22:56:39.597Z,7.53
2023-01-30T22:59:06.993Z,5.75
2023-01-30T23:01:36.209Z,5.80
2023-01-30T23:04:07.248Z,5.03
2023-01-30T23:06:34.402Z,5.40
2023-01-30T23:09:01.502Z,5.45
2023-01-30T23:11:38.227Z,4.40
2023-01-30T23:14:11.746Z,5.32
2023-01-30T23:16:40.710Z,8.45
2023-01-30T23:19:08.528Z,4.80
2023-01-30T23:21:43.863Z,4.70
2023-01-30T23:24:13.206Z,5.47
2023-01-30T23:26:42.672Z,6.72
2023-01-30T23:29:16.029Z,7.40
2023-01-30T23:31:44.354Z,10.75
2023-01-30T23:34:19.318Z,6.93
2023-01-30T23:36:46.716Z,5.43
2023-01-30T23:39:14.187Z,6.90
2023-01-30T23:41:41.918Z,6.82
2023-01-30T23:44:09.282Z,5.25
2023-01-30T23:46:41.517Z,9.77
2023-01-30T23:49:13.839Z,8.52
2023-01-30T23:51:42.876Z,8.50
2023-01-30T23:54:10.322Z,5.97
2023-01-30T23:56:39.843Z,9.32
2023-01-30T23:59:06.870Z,7.22
